createdAt,value
2023-04-15T00:02:18.016Z,5.10
2023-04-15T00:04:45.799Z,4.13
2023-04-15T00:07:14.026Z,4.10
2023-04-15T00:09:42.477Z,2.97
2023-04-15T00:12:10.555Z,3.63
2023-04-15T00:14:38.011Z,4.50
2023-04-15T00:17:06.750Z,3.10
2023-04-15T00:19:34.012Z,3.77
2023-04-15T00:22:01.292Z,3.80
2023-04-15T00:24:30.030Z,3.93
2023-04-15T00:26:58.089Z,3.20
2023-04-15T00:29:25.383Z,2.87
2023-04-15T00:31:53.189Z,5.10
2023-04-15T00:34:21.144Z,3.73
2023-04-15T00:36:48.454Z,4.00
2023-04-15T00:39:15.974Z,4.23
2023-04-15T00:41:43.609Z,4.07
2023-04-15T00:44:10.922Z,4.43
2023-04-15T00:46:39.185Z,4.30
2023-04-15T00:49:07.487Z,2.40
2023-04-15T00:51:36.259Z,4.83
2023-04-15T00:54:03.932Z,3.33
2023-04-15T00:56:33.200Z,4.07
2023-04-15T00:59:01.570Z,3.53
2023-04-15T01:01:29.206Z,4.40
2023-04-15T01:03:57.905Z,3.67
2023-04-15T01:06:26.915Z,4.27
2023-04-15T01:08:55.300Z,3.80
2023-04-15T01:11:24.500Z,3.80
2023-04-15T01:13:52.324Z,4.50
2023-04-15T01:16:20.149Z,4.30
2023-04-15T01:18:47.716Z,4.20
2023-04-15T01:21:14.955Z,4.60
2023-04-15T01:23:42.957Z,3.73
2023-04-15T01:26:11.366Z,3.50
2023-04-15T01:28:38.696Z,4.13
2023-04-15T01:31:07.746Z,3.83
2023-04-15T01:33:35.912Z,3.70
2023-04-15T01:36:03.754Z,4.20
2023-04-15T01:38:31.879Z,3.53
2023-04-15T01:40:59.140Z,3.83
2023-04-15T01:43:27.495Z,5.27
2023-04-15T01:45:55.068Z,4.17
2023-04-15T01:48:22.541Z,5.13
2023-04-15T01:50:50.065Z,3.70
2023-04-15T01:53:17.334Z,4.50
2023-04-15T01:55:44.982Z,3.87
2023-04-15T01:58:12.229Z,3.83
2023-04-15T02:00:40.478Z,3.80
2023-04-15T02:03:07.894Z,4.00
2023-04-15T02:05:35.215Z,4.57
2023-04-15T02:08:03.141Z,4.57
2023-04-15T02:10:30.478Z,5.17
2023-04-15T02:12:57.818Z,3.80
2023-04-15T02:15:25.310Z,4.47
2023-04-15T02:17:54.660Z,4.50
2023-04-15T02:20:22.594Z,4.67
2023-04-15T02:22:50.129Z,3.97
2023-04-15T02:25:17.737Z,4.90
2023-04-15T02:27:45.027Z,5.67
2023-04-15T02:30:12.382Z,3.83
2023-04-15T02:32:40.252Z,4.27
2023-04-15T02:35:09.182Z,4.17
2023-04-15T02:37:41.006Z,4.30
2023-04-15T02:40:10.517Z,4.33
2023-04-15T02:42:38.049Z,4.70
2023-04-15T02:45:06.625Z,6.50
2023-04-15T02:47:34.076Z,4.60
2023-04-15T02:50:02.309Z,6.13
2023-04-15T02:52:30.467Z,5.03
2023-04-15T02:55:00.138Z,4.20
2023-04-15T02:57:28.277Z,4.80
2023-04-15T02:59:55.738Z,4.73
2023-04-15T03:02:24.652Z,4.73
2023-04-15T03:04:52.064Z,4.90
2023-04-15T03:07:19.414Z,4.20
2023-04-15T03:09:47.561Z,4.37
2023-04-15T03:12:14.831Z,6.87
2023-04-15T03:14:42.081Z,4.37
2023-04-15T03:17:09.362Z,5.03
2023-04-15T03:19:37.128Z,5.07
2023-04-15T03:22:04.494Z,4.63
2023-04-15T03:24:31.788Z,4.40
2023-04-15T03:27:00.484Z,4.40
2023-04-15T03:29:27.715Z,5.00
2023-04-15T03:31:55.057Z,5.80
2023-04-15T03:34:22.350Z,5.50
2023-04-15T03:36:50.111Z,5.37
2023-04-15T03:39:17.342Z,5.17
2023-04-15T03:41:44.584Z,4.57
2023-04-15T03:44:12.613Z,5.03
2023-04-15T03:46:40.534Z,5.17
2023-04-15T03:49:08.292Z,4.70
2023-04-15T03:51:35.641Z,4.00
2023-04-15T03:54:03.008Z,4.33
2023-04-15T03:56:30.329Z,4.43
2023-04-15T03:58:57.586Z,5.20
2023-04-15T04:01:25.728Z,5.20
2023-04-15T04:03:53.206Z,5.30
2023-04-15T04:06:20.764Z,5.00
2023-04-15T04:08:48.030Z,5.40
2023-04-15T04:11:19.412Z,5.50
2023-04-15T04:13:46.761Z,5.40
2023-04-15T04:16:14.104Z,5.27
2023-04-15T04:18:42.125Z,5.00
2023-04-15T04:21:09.403Z,4.93
2023-04-15T04:23:36.670Z,5.53
2023-04-15T04:26:03.964Z,5.60
2023-04-15T04:28:31.584Z,7.90
2023-04-15T04:30:59.113Z,7.63
2023-04-15T04:33:26.386Z,5.57
2023-04-15T04:35:54.261Z,6.00
2023-04-15T04:38:21.510Z,10.90
2023-04-15T04:40:49.035Z,8.00
2023-04-15T04:43:16.336Z,9.50
2023-04-15T04:45:43.687Z,6.07
2023-04-15T04:48:10.893Z,6.17
2023-04-15T04:50:38.235Z,7.10
2023-04-15T04:53:06.134Z,6.80
2023-04-15T04:55:36.212Z,6.83
2023-04-15T04:58:03.471Z,7.53
2023-04-15T05:00:30.733Z,9.30
2023-04-15T05:02:58.462Z,7.53
2023-04-15T05:05:26.387Z,8.67
2023-04-15T05:07:53.681Z,8.50
2023-04-15T05:10:21.619Z,7.37
2023-04-15T05:12:48.899Z,8.80
2023-04-15T05:15:16.206Z,8.67
2023-04-15T05:17:43.967Z,6.10
2023-04-15T05:20:12.284Z,8.30
2023-04-15T05:22:39.713Z,8.13
2023-04-15T05:25:08.000Z,8.50
2023-04-15T05:27:36.082Z,7.73
2023-04-15T05:30:03.618Z,7.83
2023-04-15T05:32:30.951Z,8.80
2023-04-15T05:34:58.240Z,8.20
2023-04-15T05:37:25.632Z,9.70
2023-04-15T05:39:52.998Z,8.67
2023-04-15T05:42:20.264Z,8.20
2023-04-15T05:44:48.267Z,10.53
2023-04-15T05:47:15.973Z,9.20
2023-04-15T05:49:43.226Z,9.70
2023-04-15T05:52:10.542Z,10.00
2023-04-15T05:54:38.739Z,8.80
2023-04-15T05:57:06.710Z,8.60
2023-04-15T05:59:34.008Z,9.33
2023-04-15T06:02:02.046Z,23.10
2023-04-15T06:04:29.765Z,23.97
2023-04-15T06:06:57.210Z,48.20
2023-04-15T06:09:24.680Z,18.50
2023-04-15T06:11:52.818Z,15.90
2023-04-15T06:14:20.097Z,11.67
2023-04-15T06:16:47.354Z,15.20
2023-04-15T06:19:15.294Z,10.57
2023-04-15T06:21:42.575Z,10.00
2023-04-15T06:24:10.280Z,9.50
2023-04-15T06:26:37.641Z,9.97
2023-04-15T06:29:05.063Z,8.50
2023-04-15T06:31:32.350Z,7.20
2023-04-15T06:34:00.048Z,7.93
2023-04-15T06:36:28.095Z,12.73
2023-04-15T06:38:56.385Z,7.20
2023-04-15T06:41:23.717Z,6.83
2023-04-15T06:43:51.115Z,6.93
2023-04-15T06:46:18.396Z,7.97
2023-04-15T06:48:45.769Z,8.03
2023-04-15T06:51:13.025Z,8.63
2023-04-15T06:53:43.163Z,9.93
2023-04-15T06:56:10.747Z,9.93
2023-04-15T06:58:37.993Z,11.00
2023-04-15T07:01:05.446Z,12.00
2023-04-15T07:03:33.070Z,10.97
2023-04-15T07:06:01.017Z,9.77
2023-04-15T07:08:28.267Z,8.80
2023-04-15T07:10:56.445Z,6.50
2023-04-15T07:13:23.847Z,6.00
2023-04-15T07:15:51.104Z,6.23
2023-04-15T07:18:18.439Z,5.17
2023-04-15T07:20:48.905Z,4.83
2023-04-15T07:23:16.434Z,4.30
2023-04-15T07:25:43.719Z,5.30
2023-04-15T07:28:11.652Z,4.20
2023-04-15T07:30:39.024Z,9.80
2023-04-15T07:33:06.307Z,3.67
2023-04-15T07:35:33.610Z,3.20
2023-04-15T07:38:00.815Z,2.90
2023-04-15T07:40:28.394Z,2.80
2023-04-15T07:42:57.595Z,3.70
2023-04-15T07:45:25.580Z,2.83
2023-04-15T07:47:52.847Z,11.23
2023-04-15T07:50:20.146Z,5.67
2023-04-15T07:52:48.373Z,4.93
2023-04-15T07:55:18.654Z,3.97
2023-04-15T07:57:46.790Z,4.70
2023-04-15T08:00:15.576Z,6.10
2023-04-15T08:02:43.849Z,6.70
2023-04-15T08:05:11.670Z,5.73
2023-04-15T08:07:39.284Z,3.80
2023-04-15T08:10:07.613Z,3.60
2023-04-15T08:12:34.928Z,4.80
2023-04-15T08:15:02.342Z,3.20
2023-04-15T08:17:29.643Z,3.40
2023-04-15T08:19:57.582Z,2.53
2023-04-15T08:22:24.791Z,1.40
2023-04-15T08:24:52.060Z,4.50
2023-04-15T08:27:19.433Z,2.57
2023-04-15T08:29:46.722Z,2.87
2023-04-15T08:32:14.174Z,1.97
2023-04-15T08:34:41.481Z,1.63
2023-04-15T08:37:12.888Z,1.80
2023-04-15T08:39:40.204Z,0.90
2023-04-15T08:42:13.672Z,0.97
2023-04-15T08:44:41.374Z,0.90
2023-04-15T08:47:09.176Z,1.00
2023-04-15T08:49:39.937Z,1.03
2023-04-15T08:52:07.747Z,1.00
2023-04-15T08:54:36.861Z,1.50
2023-04-15T08:57:04.298Z,0.90
2023-04-15T08:59:32.077Z,0.90
2023-04-15T09:01:59.712Z,1.03
2023-04-15T09:04:27.841Z,1.07
2023-04-15T09:06:55.164Z,1.67
2023-04-15T09:09:22.456Z,2.80
2023-04-15T09:11:52.370Z,5.80
2023-04-15T09:14:19.680Z,4.27
2023-04-15T09:17:01.322Z,4.73
2023-04-15T09:19:29.122Z,3.37
2023-04-15T09:21:59.137Z,3.83
2023-04-15T09:24:33.958Z,2.80
2023-04-15T09:27:05.623Z,2.10
2023-04-15T09:29:36.391Z,1.20
2023-04-15T09:32:14.131Z,1.37
2023-04-15T09:34:41.511Z,1.27
2023-04-15T09:37:10.552Z,1.50
2023-04-15T09:39:49.337Z,1.80
2023-04-15T09:42:23.528Z,1.30
2023-04-15T09:44:53.988Z,1.53
2023-04-15T09:47:31.600Z,2.20
2023-04-15T09:50:00.786Z,9.20
2023-04-15T09:52:29.152Z,7.27
2023-04-15T09:54:59.126Z,4.50
2023-04-15T09:57:35.274Z,3.60
2023-04-15T10:00:03.149Z,3.17
2023-04-15T10:02:31.797Z,1.20
2023-04-15T10:05:01.142Z,1.53
2023-04-15T10:07:28.986Z,1.40
2023-04-15T10:09:58.662Z,1.87
2023-04-15T10:12:28.315Z,1.30
2023-04-15T10:15:00.920Z,2.10
2023-04-15T10:17:32.898Z,1.63
2023-04-15T10:20:02.106Z,1.20
2023-04-15T10:22:30.120Z,1.50
2023-04-15T10:24:59.254Z,1.90
2023-04-15T10:27:28.652Z,1.90
2023-04-15T10:29:56.497Z,1.77
2023-04-15T10:32:24.973Z,2.03
2023-04-15T10:34:54.586Z,1.60
2023-04-15T10:37:22.958Z,1.70
2023-04-15T10:39:50.428Z,1.20
2023-04-15T10:42:19.406Z,1.20
2023-04-15T10:44:51.252Z,1.90
2023-04-15T10:47:20.332Z,3.63
2023-04-15T10:49:49.658Z,3.60
2023-04-15T10:52:18.612Z,7.90
2023-04-15T10:54:49.054Z,6.60
2023-04-15T10:57:22.237Z,6.57
2023-04-15T11:00:10.650Z,4.37
2023-04-15T11:02:46.574Z,5.90
2023-04-15T11:05:14.898Z,5.57
2023-04-15T11:07:49.319Z,4.70
2023-04-15T11:10:50.631Z,4.50
2023-04-15T11:13:21.272Z,5.30
2023-04-15T11:15:51.239Z,4.73
2023-04-15T11:18:20.444Z,5.50
2023-04-15T11:20:49.889Z,4.93
2023-04-15T11:23:18.853Z,6.57
2023-04-15T11:25:47.918Z,4.03
2023-04-15T11:28:15.411Z,5.03
2023-04-15T11:30:43.946Z,5.47
2023-04-15T11:33:13.159Z,5.10
2023-04-15T11:35:42.410Z,5.50
2023-04-15T11:38:11.574Z,4.87
2023-04-15T11:40:39.587Z,4.17
2023-04-15T11:43:08.684Z,4.73
2023-04-15T11:45:36.660Z,4.70
2023-04-15T11:48:08.610Z,4.13
2023-04-15T11:50:39.937Z,12.03
2023-04-15T11:53:08.728Z,8.70
2023-04-15T11:55:44.168Z,4.33
2023-04-15T11:58:14.439Z,5.90
2023-04-15T12:00:47.515Z,4.63
2023-04-15T12:03:21.228Z,4.60
2023-04-15T12:06:06.597Z,3.97
2023-04-15T12:08:58.415Z,4.70
2023-04-15T12:11:31.531Z,4.70
2023-04-15T12:14:02.617Z,4.70
2023-04-15T12:16:30.546Z,3.87
2023-04-15T12:19:00.009Z,4.80
2023-04-15T12:21:33.828Z,4.83
2023-04-15T12:24:04.185Z,4.53
2023-04-15T12:26:34.971Z,4.00
2023-04-15T12:29:03.125Z,4.10
2023-04-15T12:31:30.755Z,4.37
2023-04-15T12:33:58.872Z,4.53
2023-04-15T12:36:27.170Z,3.70
2023-04-15T12:38:54.839Z,4.80
2023-04-15T12:41:23.720Z,4.50
2023-04-15T12:43:51.411Z,4.50
2023-04-15T12:46:19.571Z,4.20
2023-04-15T12:48:47.198Z,4.20
2023-04-15T12:51:14.836Z,3.80
2023-04-15T12:53:42.842Z,3.43
2023-04-15T12:56:10.204Z,3.70
2023-04-15T12:58:37.523Z,3.40
2023-04-15T13:01:05.820Z,5.03
2023-04-15T13:03:33.267Z,6.20
2023-04-15T13:06:01.572Z,6.77
2023-04-15T13:08:28.870Z,6.20
2023-04-15T13:10:57.048Z,3.70
2023-04-15T13:13:24.518Z,5.37
2023-04-15T13:15:51.787Z,7.20
2023-04-15T13:18:19.359Z,6.43
2023-04-15T13:20:46.610Z,4.20
2023-04-15T13:23:14.377Z,3.03
2023-04-15T13:25:41.755Z,4.53
2023-04-15T13:28:11.178Z,3.67
2023-04-15T13:30:39.067Z,6.27
2023-04-15T13:33:06.362Z,3.80
2023-04-15T13:35:33.898Z,7.50
2023-04-15T13:38:01.298Z,6.60
2023-04-15T13:40:28.679Z,4.40
2023-04-15T13:42:57.070Z,6.43
2023-04-15T13:45:25.216Z,5.93
2023-04-15T13:47:52.761Z,5.80
2023-04-15T13:50:20.111Z,3.30
2023-04-15T13:52:47.382Z,3.67
2023-04-15T13:55:19.877Z,3.77
2023-04-15T13:57:49.734Z,3.47
2023-04-15T14:00:17.322Z,3.10
2023-04-15T14:02:45.670Z,3.13
2023-04-15T14:05:13.228Z,6.57
2023-04-15T14:07:40.663Z,7.93
2023-04-15T14:10:08.590Z,7.77
2023-04-15T14:12:35.867Z,4.07
2023-04-15T14:15:03.378Z,5.57
2023-04-15T14:17:30.811Z,5.20
2023-04-15T14:19:58.836Z,9.80
2023-04-15T14:22:26.165Z,7.20
2023-04-15T14:24:54.904Z,9.30
2023-04-15T14:27:22.943Z,4.63
2023-04-15T14:29:50.406Z,5.67
2023-04-15T14:32:17.661Z,3.67
2023-04-15T14:34:44.954Z,3.50
2023-04-15T14:44:01.714Z,4.83
2023-04-15T14:46:29.194Z,4.43
2023-04-15T14:48:56.751Z,4.10
2023-04-15T14:51:24.233Z,5.87
2023-04-15T14:53:51.852Z,4.97
2023-04-15T14:56:19.170Z,3.43
2023-04-15T14:58:47.259Z,4.10
2023-04-15T15:01:15.428Z,3.37
2023-04-15T15:03:44.150Z,3.77
2023-04-15T15:06:11.820Z,6.43
2023-04-15T15:08:39.259Z,4.37
2023-04-15T15:11:11.687Z,3.93
2023-04-15T15:13:39.034Z,4.20
2023-04-15T15:16:06.991Z,4.57
2023-04-15T15:18:36.786Z,3.80
2023-04-15T15:21:07.133Z,3.63
2023-04-15T15:23:34.651Z,11.27
2023-04-15T15:26:04.133Z,10.40
2023-04-15T15:28:31.683Z,6.77
2023-04-15T15:30:59.225Z,12.30
2023-04-15T15:33:28.584Z,4.50
2023-04-15T15:36:01.610Z,4.70
2023-04-15T15:38:28.998Z,11.80
2023-04-15T15:40:56.384Z,3.97
2023-04-15T15:43:23.728Z,4.40
2023-04-15T15:45:54.586Z,3.30
2023-04-15T15:48:22.564Z,3.90
2023-04-15T15:50:49.977Z,3.53
2023-04-15T15:53:20.145Z,4.20
2023-04-15T15:55:47.925Z,5.30
2023-04-15T15:58:15.385Z,5.90
2023-04-15T16:00:42.916Z,7.77
2023-04-15T16:03:11.569Z,17.67
2023-04-15T16:05:43.383Z,5.23
2023-04-15T16:08:10.911Z,6.07
2023-04-15T16:10:43.266Z,5.10
2023-04-15T16:13:10.738Z,4.20
2023-04-15T16:15:38.467Z,5.63
2023-04-15T16:18:17.657Z,6.40
2023-04-15T16:20:49.541Z,8.87
2023-04-15T16:23:17.609Z,4.70
2023-04-15T16:25:54.213Z,5.90
2023-04-15T16:28:27.313Z,4.27
2023-04-15T16:30:56.935Z,4.63
2023-04-15T16:33:24.529Z,4.77
2023-04-15T16:35:52.994Z,3.40
2023-04-15T16:38:20.729Z,4.10
2023-04-15T16:40:56.130Z,5.07
2023-04-15T16:43:33.125Z,4.63
2023-04-15T16:46:01.766Z,5.57
2023-04-15T16:48:29.082Z,4.20
2023-04-15T16:50:56.999Z,4.37
2023-04-15T16:53:24.452Z,4.70
2023-04-15T16:55:52.443Z,4.00
2023-04-15T16:58:19.757Z,4.60
2023-04-15T17:00:47.133Z,4.07
2023-04-15T17:03:14.566Z,5.10
2023-04-15T17:05:42.003Z,6.30
2023-04-15T17:08:09.260Z,7.87
2023-04-15T17:10:36.928Z,5.03
2023-04-15T17:13:04.919Z,4.67
2023-04-15T17:15:32.248Z,4.60
2023-04-15T17:17:59.588Z,4.83
2023-04-15T17:20:26.951Z,4.07
2023-04-15T17:22:54.388Z,3.93
2023-04-15T17:25:22.442Z,4.60
2023-04-15T17:27:49.754Z,4.50
2023-04-15T17:30:17.795Z,4.90
2023-04-15T17:32:45.261Z,3.80
2023-04-15T17:35:12.674Z,5.00
2023-04-15T17:37:40.070Z,4.50
2023-04-15T17:40:08.981Z,8.90
2023-04-15T17:42:36.460Z,7.90
2023-04-15T17:45:04.139Z,7.80
2023-04-15T17:47:32.263Z,6.60
2023-04-15T17:49:59.690Z,5.20
2023-04-15T17:52:27.044Z,4.60
2023-04-15T17:54:55.621Z,5.70
2023-04-15T17:57:24.468Z,5.67
2023-04-15T17:59:52.284Z,6.97
2023-04-15T18:02:19.895Z,6.23
2023-04-15T18:04:48.163Z,9.40
2023-04-15T18:07:15.853Z,9.13
2023-04-15T18:09:43.618Z,7.50
2023-04-15T18:12:10.939Z,7.57
2023-04-15T18:14:38.206Z,7.20
2023-04-15T18:17:05.837Z,6.70
2023-04-15T18:19:33.137Z,11.03
2023-04-15T18:22:01.408Z,7.40
2023-04-15T18:24:29.473Z,8.07
2023-04-15T18:26:56.814Z,8.70
2023-04-15T18:29:24.623Z,7.70
2023-04-15T18:31:52.125Z,8.00
2023-04-15T18:34:19.452Z,8.50
2023-04-15T18:36:46.811Z,8.70
2023-04-15T18:39:16.042Z,8.50
2023-04-15T18:41:43.388Z,8.33
2023-04-15T18:44:10.766Z,7.87
2023-04-15T18:46:38.073Z,7.60
2023-04-15T18:49:05.905Z,7.90
2023-04-15T18:51:33.316Z,8.50
2023-04-15T18:54:00.649Z,6.40
2023-04-15T18:56:28.708Z,6.70
2023-04-15T18:59:18.470Z,7.20
2023-04-15T19:01:43.399Z,8.20
2023-04-15T19:04:11.022Z,7.37
2023-04-15T19:06:38.436Z,7.60
2023-04-15T19:09:06.158Z,8.73
2023-04-15T19:11:34.313Z,7.50
2023-04-15T19:14:01.705Z,7.60
2023-04-15T19:16:29.116Z,8.77
2023-04-15T19:18:56.449Z,9.03
2023-04-15T19:21:23.864Z,8.13
2023-04-15T19:23:51.196Z,7.40
2023-04-15T19:26:18.571Z,8.33
2023-04-15T19:28:46.602Z,7.93
2023-04-15T19:31:13.934Z,7.23
2023-04-15T19:33:41.799Z,7.67
2023-04-15T19:36:09.091Z,7.90
2023-04-15T19:38:36.751Z,8.80
2023-04-15T19:41:04.295Z,8.00
2023-04-15T19:43:31.870Z,7.90
2023-04-15T19:46:00.200Z,8.73
2023-04-15T19:48:27.574Z,9.23
2023-04-15T19:50:54.846Z,9.07
2023-04-15T19:53:22.166Z,10.70
2023-04-15T19:55:49.787Z,11.53
2023-04-15T19:58:17.199Z,9.30
2023-04-15T20:00:44.708Z,8.93
2023-04-15T20:03:12.906Z,10.10
2023-04-15T20:05:40.300Z,9.30
2023-04-15T20:08:07.635Z,9.80
2023-04-15T20:10:35.850Z,9.50
2023-04-15T20:13:03.224Z,11.30
2023-04-15T20:15:30.787Z,10.70
2023-04-15T20:17:58.228Z,9.60
2023-04-15T20:20:26.274Z,11.87
2023-04-15T20:22:53.557Z,12.90
2023-04-15T20:25:20.898Z,12.20
2023-04-15T20:27:48.280Z,15.00
2023-04-15T20:30:15.588Z,13.90
2023-04-15T20:32:42.906Z,15.47
2023-04-15T20:35:10.587Z,15.70
2023-04-15T20:37:39.674Z,15.37
2023-04-15T20:40:08.327Z,15.10
2023-04-15T20:42:35.633Z,14.70
2023-04-15T20:45:03.405Z,15.50
2023-04-15T20:47:30.809Z,19.00
2023-04-15T20:49:58.241Z,19.20
2023-04-15T20:52:25.585Z,26.90
2023-04-15T20:54:53.666Z,31.70
2023-04-15T20:57:21.003Z,21.57
2023-04-15T20:59:48.347Z,17.50
2023-04-15T21:02:15.817Z,14.70
2023-04-15T21:04:43.217Z,13.67
2023-04-15T21:07:10.650Z,16.73
2023-04-15T21:09:40.639Z,12.13
2023-04-15T21:12:09.013Z,11.80
2023-04-15T21:14:37.017Z,11.40
2023-04-15T21:17:07.265Z,10.87
2023-04-15T21:19:36.835Z,10.20
2023-04-15T21:22:04.822Z,10.27
2023-04-15T21:24:32.108Z,11.03
2023-04-15T21:26:59.347Z,10.07
2023-04-15T21:29:27.393Z,11.23
2023-04-15T21:31:54.789Z,10.27
2023-04-15T21:34:22.249Z,11.57
2023-04-15T21:36:49.652Z,11.37
2023-04-15T21:39:16.966Z,11.13
2023-04-15T21:41:44.324Z,10.77
2023-04-15T21:44:12.650Z,10.70
2023-04-15T21:46:45.707Z,10.30
2023-04-15T21:49:13.532Z,10.10
2023-04-15T21:51:40.861Z,9.60
2023-04-15T21:54:08.367Z,9.93
2023-04-15T21:56:37.167Z,9.77
2023-04-15T21:59:04.747Z,10.80
2023-04-15T22:01:32.257Z,11.07
2023-04-15T22:04:00.444Z,10.77
2023-04-15T22:06:28.013Z,10.23
2023-04-15T22:08:57.494Z,11.00
2023-04-15T22:11:30.143Z,10.87
2023-04-15T22:13:58.046Z,10.90
2023-04-15T22:16:25.806Z,10.47
2023-04-15T22:18:53.316Z,9.60
2023-04-15T22:21:21.357Z,9.50
2023-04-15T22:23:49.310Z,11.53
2023-04-15T22:26:16.712Z,11.93
2023-04-15T22:28:45.062Z,10.90
2023-04-15T22:31:13.013Z,10.03
2023-04-15T22:33:40.387Z,9.60
2023-04-15T22:36:07.687Z,9.90
2023-04-15T22:38:35.763Z,11.03
2023-04-15T22:41:03.219Z,10.87
2023-04-15T22:43:30.554Z,9.33
2023-04-15T22:45:57.958Z,10.20
2023-04-15T22:48:25.302Z,10.60
2023-04-15T22:50:52.615Z,12.80
2023-04-15T22:53:19.903Z,14.47
2023-04-15T22:55:48.308Z,16.57
2023-04-15T22:58:16.453Z,16.80
2023-04-15T23:00:43.856Z,16.13
2023-04-15T23:03:11.557Z,17.43
2023-04-15T23:05:40.363Z,17.03
2023-04-15T23:08:07.778Z,17.40
2023-04-15T23:10:35.145Z,17.40
2023-04-15T23:13:03.140Z,19.93
2023-04-15T23:15:30.446Z,17.57
2023-04-15T23:17:59.587Z,20.00
2023-04-15T23:20:26.941Z,18.80
2023-04-15T23:22:54.216Z,21.87
2023-04-15T23:25:22.081Z,20.83
2023-04-15T23:27:49.551Z,19.10
2023-04-15T23:30:17.814Z,21.10
2023-04-15T23:32:45.252Z,18.30
2023-04-15T23:35:12.581Z,19.17
2023-04-15T23:37:39.896Z,18.10
2023-04-15T23:40:08.415Z,17.10
2023-04-15T23:42:35.760Z,17.87
2023-04-15T23:45:03.201Z,16.77
2023-04-15T23:47:31.242Z,14.40
2023-04-15T23:49:58.570Z,14.77
2023-04-15T23:52:25.917Z,14.43
2023-04-15T23:54:53.200Z,14.37
2023-04-15T23:57:20.492Z,15.97
2023-04-15T23:59:47.916Z,15.77
